createdAt,value
2017-11-09T00:00:16.740Z,1003.38
2017-11-09T00:01:16.733Z,1003.43
2017-11-09T00:02:16.734Z,1003.41
2017-11-09T00:03:16.725Z,1003.46
2017-11-09T00:04:16.721Z,1003.43
2017-11-09T00:05:16.721Z,1003.37
2017-11-09T00:06:16.713Z,1003.40
2017-11-09T00:07:16.707Z,1003.37
2017-11-09T00:08:16.702Z,1003.39
2017-11-09T00:09:16.697Z,1003.43
2017-11-09T00:10:16.693Z,1003.42
2017-11-09T00:11:16.689Z,1003.46
2017-11-09T00:12:16.684Z,1003.46
2017-11-09T00:13:16.683Z,1003.44
2017-11-09T00:14:16.678Z,1003.43
2017-11-09T00:15:16.688Z,1003.53
2017-11-09T00:16:17.176Z,1003.48
2017-11-09T00:17:16.662Z,1003.49
2017-11-09T00:18:16.657Z,1003.46
2017-11-09T00:19:16.654Z,1003.49
2017-11-09T00:20:16.650Z,1003.56
2017-11-09T00:21:16.645Z,1003.58
2017-11-09T00:22:16.640Z,1003.49
2017-11-09T00:23:16.636Z,1003.47
2017-11-09T00:24:16.630Z,1003.49
2017-11-09T00:25:16.627Z,1003.48
2017-11-09T00:26:16.623Z,1003.45
2017-11-09T00:27:16.619Z,1003.49
2017-11-09T00:28:16.613Z,1003.46
2017-11-09T00:29:17.176Z,1003.48
2017-11-09T00:30:16.603Z,1003.49
2017-11-09T00:31:16.600Z,1003.44
2017-11-09T00:32:16.603Z,1003.49
2017-11-09T00:33:16.591Z,1003.45
2017-11-09T00:34:16.588Z,1003.41
2017-11-09T00:35:16.581Z,1003.45
2017-11-09T00:36:16.576Z,1003.44
2017-11-09T00:37:16.575Z,1003.43
2017-11-09T00:38:16.568Z,1003.46
2017-11-09T00:39:16.564Z,1003.44
2017-11-09T00:40:16.558Z,1003.41
2017-11-09T00:41:16.572Z,1003.44
2017-11-09T00:42:16.550Z,1003.38
2017-11-09T00:43:16.545Z,1003.47
2017-11-09T00:44:16.540Z,1003.42
2017-11-09T00:45:16.538Z,1003.45
2017-11-09T00:46:16.845Z,1003.48
2017-11-09T00:47:16.528Z,1003.49
2017-11-09T00:48:16.530Z,1003.51
2017-11-09T00:49:16.521Z,1003.48
2017-11-09T00:50:16.515Z,1003.44
2017-11-09T00:51:16.511Z,1003.45
2017-11-09T00:52:16.504Z,1003.47
2017-11-09T00:53:16.503Z,1003.47
2017-11-09T00:54:16.497Z,1003.43
2017-11-09T00:55:16.509Z,1003.44
2017-11-09T00:56:16.488Z,1003.41
2017-11-09T00:57:16.484Z,1003.42
2017-11-09T00:58:16.480Z,1003.45
2017-11-09T00:59:16.475Z,1003.45
2017-11-09T01:00:16.472Z,1003.42
2017-11-09T01:01:16.469Z,1003.43
2017-11-09T01:02:16.462Z,1003.51
2017-11-09T01:03:16.458Z,1003.49
2017-11-09T01:04:16.454Z,1003.52
2017-11-09T01:05:16.448Z,1003.52
2017-11-09T01:06:16.446Z,1003.48
2017-11-09T01:07:16.444Z,1003.47
2017-11-09T01:08:16.436Z,1003.43
2017-11-09T01:09:16.431Z,1003.49
2017-11-09T01:10:16.427Z,1003.53
2017-11-09T01:11:16.427Z,1003.46
2017-11-09T01:12:16.424Z,1003.41
2017-11-09T01:13:16.426Z,1003.41
2017-11-09T01:14:16.408Z,1003.46
2017-11-09T01:15:16.404Z,1003.48
2017-11-09T01:16:16.399Z,1003.46
2017-11-09T01:17:17.254Z,1003.45
2017-11-09T01:18:16.392Z,1003.48
2017-11-09T01:19:16.388Z,1003.44
2017-11-09T01:20:16.384Z,1003.44
2017-11-09T01:21:16.379Z,1003.48
2017-11-09T01:22:16.379Z,1003.47
2017-11-09T01:23:16.374Z,1003.50
2017-11-09T01:24:16.365Z,1003.47
2017-11-09T01:25:16.361Z,1003.49
2017-11-09T01:26:16.355Z,1003.45
2017-11-09T01:27:16.357Z,1003.46
2017-11-09T01:28:16.361Z,1003.40
2017-11-09T01:29:16.347Z,1003.43
2017-11-09T01:30:16.340Z,1003.40
2017-11-09T01:31:16.338Z,1003.42
2017-11-09T01:32:16.329Z,1003.42
2017-11-09T01:33:16.326Z,1003.41
2017-11-09T01:34:16.323Z,1003.41
2017-11-09T01:35:16.319Z,1003.42
2017-11-09T01:36:16.313Z,1003.42
2017-11-09T01:37:16.311Z,1003.39
2017-11-09T01:38:16.305Z,1003.37
2017-11-09T01:39:16.300Z,1003.33
2017-11-09T01:40:16.296Z,1003.34
2017-11-09T01:41:16.307Z,1003.37
2017-11-09T01:42:16.288Z,1003.31
2017-11-09T01:43:16.284Z,1003.31
2017-11-09T01:44:16.283Z,1003.34
2017-11-09T01:45:16.284Z,1003.29
2017-11-09T01:46:16.271Z,1003.31
2017-11-09T01:47:16.273Z,1003.34
2017-11-09T01:48:16.262Z,1003.33
2017-11-09T01:49:16.258Z,1003.34
2017-11-09T01:50:16.259Z,1003.32
2017-11-09T01:51:16.259Z,1003.30
2017-11-09T01:52:16.245Z,1003.30
2017-11-09T01:53:16.241Z,1003.30
2017-11-09T01:54:16.239Z,1003.28
2017-11-09T01:55:16.233Z,1003.33
2017-11-09T01:56:16.230Z,1003.30
2017-11-09T01:57:16.227Z,1003.22
2017-11-09T01:58:16.225Z,1003.27
2017-11-09T01:59:16.223Z,1003.29
2017-11-09T02:00:16.211Z,1003.34
2017-11-09T02:01:16.205Z,1003.32
2017-11-09T02:02:16.202Z,1003.33
2017-11-09T02:03:16.197Z,1003.31
2017-11-09T02:04:16.194Z,1003.35
2017-11-09T02:05:16.190Z,1003.34
2017-11-09T02:06:16.184Z,1003.33
2017-11-09T02:07:16.181Z,1003.35
2017-11-09T02:08:16.176Z,1003.34
2017-11-09T02:09:16.170Z,1003.34
2017-11-09T02:10:16.172Z,1003.36
2017-11-09T02:11:16.166Z,1003.35
2017-11-09T02:12:16.158Z,1003.38
2017-11-09T02:13:16.153Z,1003.39
2017-11-09T02:14:16.687Z,1003.40
2017-11-09T02:15:16.145Z,1003.46
2017-11-09T02:16:16.140Z,1003.49
2017-11-09T02:17:16.697Z,1003.45
2017-11-09T02:18:16.131Z,1003.49
2017-11-09T02:19:16.127Z,1003.53
2017-11-09T02:20:16.122Z,1003.48
2017-11-09T02:21:16.119Z,1003.50
2017-11-09T02:22:16.114Z,1003.46
2017-11-09T02:23:16.111Z,1003.47
2017-11-09T02:24:16.104Z,1003.50
2017-11-09T02:25:16.153Z,1003.47
2017-11-09T02:26:16.184Z,1003.40
2017-11-09T02:27:16.090Z,1003.37
2017-11-09T02:28:16.089Z,1003.37
2017-11-09T02:29:16.086Z,1003.38
2017-11-09T02:30:16.077Z,1003.45
2017-11-09T02:31:16.073Z,1003.44
2017-11-09T02:32:16.071Z,1003.45
2017-11-09T02:33:16.066Z,1003.47
2017-11-09T02:34:16.059Z,1003.44
2017-11-09T02:35:16.054Z,1003.42
2017-11-09T02:36:16.050Z,1003.46
2017-11-09T02:37:16.046Z,1003.47
2017-11-09T02:38:16.042Z,1003.45
2017-11-09T02:39:16.037Z,1003.42
2017-11-09T02:40:16.030Z,1003.43
2017-11-09T02:41:16.030Z,1003.40
2017-11-09T02:42:16.031Z,1003.45
2017-11-09T02:43:16.019Z,1003.51
2017-11-09T02:44:16.014Z,1003.50
2017-11-09T02:45:16.014Z,1003.52
2017-11-09T02:46:16.167Z,1003.53
2017-11-09T02:47:16.106Z,1003.49
2017-11-09T02:48:16.049Z,1003.41
2017-11-09T02:49:16.522Z,1003.44
2017-11-09T02:50:15.990Z,1003.45
2017-11-09T02:51:15.984Z,1003.44
2017-11-09T02:52:15.978Z,1003.48
2017-11-09T02:53:15.973Z,1003.41
2017-11-09T02:54:15.971Z,1003.45
2017-11-09T02:55:15.965Z,1003.44
2017-11-09T02:56:15.963Z,1003.46
2017-11-09T02:57:15.956Z,1003.48
2017-11-09T02:58:15.952Z,1003.49
2017-11-09T02:59:15.946Z,1003.48
2017-11-09T03:00:15.943Z,1003.55
2017-11-09T03:01:15.940Z,1003.50
2017-11-09T03:02:15.939Z,1003.47
2017-11-09T03:03:15.930Z,1003.53
2017-11-09T03:04:15.924Z,1003.53
2017-11-09T03:05:15.921Z,1003.58
2017-11-09T03:06:15.914Z,1003.67
2017-11-09T03:07:15.909Z,1003.64
2017-11-09T03:08:15.905Z,1003.60
2017-11-09T03:09:15.903Z,1003.61
2017-11-09T03:10:15.896Z,1003.63
2017-11-09T03:11:15.893Z,1003.63
2017-11-09T03:12:15.935Z,1003.61
2017-11-09T03:13:15.881Z,1003.63
2017-11-09T03:14:15.878Z,1003.63
2017-11-09T03:15:15.872Z,1003.68
2017-11-09T03:16:15.874Z,1003.69
2017-11-09T03:17:15.864Z,1003.67
2017-11-09T03:18:15.860Z,1003.67
2017-11-09T03:19:15.856Z,1003.64
2017-11-09T03:20:15.853Z,1003.66
2017-11-09T03:21:15.847Z,1003.61
2017-11-09T03:22:15.844Z,1003.60
2017-11-09T03:23:15.838Z,1003.61
2017-11-09T03:24:15.835Z,1003.62
2017-11-09T03:25:15.828Z,1003.65
2017-11-09T03:26:15.825Z,1003.66
2017-11-09T03:27:15.820Z,1003.71
2017-11-09T03:28:15.815Z,1003.69
2017-11-09T03:29:15.910Z,1003.68
2017-11-09T03:30:15.810Z,1003.72
2017-11-09T03:31:15.816Z,1003.70
2017-11-09T03:32:15.799Z,1003.72
2017-11-09T03:33:15.797Z,1003.74
2017-11-09T03:34:15.799Z,1003.78
2017-11-09T03:35:15.785Z,1003.74
2017-11-09T03:36:15.782Z,1003.70
2017-11-09T03:37:15.778Z,1003.72
2017-11-09T03:38:15.774Z,1003.68
2017-11-09T03:39:15.769Z,1003.70
2017-11-09T03:40:15.773Z,1003.70
2017-11-09T03:41:15.762Z,1003.67
2017-11-09T03:42:15.756Z,1003.65
2017-11-09T03:43:15.756Z,1003.67
2017-11-09T03:44:15.747Z,1003.64
2017-11-09T03:45:15.753Z,1003.67
2017-11-09T03:46:15.758Z,1003.72
2017-11-09T03:47:15.736Z,1003.69
2017-11-09T03:48:15.731Z,1003.72
2017-11-09T03:49:15.726Z,1003.75
2017-11-09T03:50:15.726Z,1003.66
2017-11-09T03:51:15.721Z,1003.77
2017-11-09T03:52:15.720Z,1003.79
2017-11-09T03:53:15.713Z,1003.85
2017-11-09T03:54:15.706Z,1003.84
2017-11-09T03:55:15.706Z,1003.78
2017-11-09T03:56:15.698Z,1003.77
2017-11-09T03:57:15.702Z,1003.78
2017-11-09T03:58:15.692Z,1003.88
2017-11-09T03:59:15.689Z,1003.92
2017-11-09T04:00:15.680Z,1003.89
2017-11-09T04:01:15.675Z,1003.92
2017-11-09T04:02:15.673Z,1003.87
2017-11-09T04:03:15.668Z,1003.85
2017-11-09T04:04:15.665Z,1003.88
2017-11-09T04:05:15.659Z,1003.84
2017-11-09T04:06:15.654Z,1003.84
2017-11-09T04:07:15.651Z,1003.78
2017-11-09T04:08:15.650Z,1003.76
2017-11-09T04:09:15.642Z,1003.76
2017-11-09T04:10:15.637Z,1003.85
2017-11-09T04:11:15.635Z,1003.79
2017-11-09T04:12:16.199Z,1003.77
2017-11-09T04:13:15.625Z,1003.81
2017-11-09T04:14:15.622Z,1003.80
2017-11-09T04:15:15.615Z,1003.81
2017-11-09T04:16:15.610Z,1003.83
2017-11-09T04:17:15.606Z,1003.88
2017-11-09T04:18:36.627Z,1003.90
2017-11-09T04:19:15.597Z,1003.89
2017-11-09T04:20:15.594Z,1003.89
2017-11-09T04:21:15.680Z,1003.87
2017-11-09T04:22:15.584Z,1003.86
2017-11-09T04:23:15.581Z,1003.87
2017-11-09T04:24:15.573Z,1003.85
2017-11-09T04:25:15.570Z,1003.80
2017-11-09T04:26:15.566Z,1003.88
2017-11-09T04:27:15.562Z,1003.89
2017-11-09T04:28:15.558Z,1003.89
2017-11-09T04:29:15.553Z,1003.88
2017-11-09T04:30:15.550Z,1003.88
2017-11-09T04:31:15.565Z,1003.89
2017-11-09T04:32:15.552Z,1003.88
2017-11-09T04:33:15.762Z,1003.93
2017-11-09T04:34:15.804Z,1003.95
2017-11-09T04:35:15.905Z,1003.88
2017-11-09T04:36:15.667Z,1003.88
2017-11-09T04:37:15.791Z,1003.88
2017-11-09T04:38:16.827Z,1003.88
2017-11-09T04:39:15.582Z,1003.89
2017-11-09T04:40:16.242Z,1003.83
2017-11-09T04:41:16.224Z,1003.84
2017-11-09T04:42:16.255Z,1003.86
2017-11-09T04:43:15.579Z,1003.78
2017-11-09T04:44:15.684Z,1003.82
2017-11-09T04:45:16.289Z,1003.80
2017-11-09T04:46:15.480Z,1003.83
2017-11-09T04:47:15.475Z,1003.85
2017-11-09T04:48:15.471Z,1003.85
2017-11-09T04:49:15.469Z,1003.92
2017-11-09T04:50:15.460Z,1003.94
2017-11-09T04:51:16.203Z,1003.96
2017-11-09T04:52:16.067Z,1003.99
2017-11-09T04:53:15.451Z,1004.00
2017-11-09T04:54:15.443Z,1004.02
2017-11-09T04:55:15.439Z,1003.99
2017-11-09T04:56:15.451Z,1004.02
2017-11-09T04:57:15.517Z,1004.08
2017-11-09T04:58:15.434Z,1004.05
2017-11-09T04:59:15.422Z,1004.05
2017-11-09T05:00:15.417Z,1004.03
2017-11-09T05:01:15.413Z,1004.05
2017-11-09T05:02:15.411Z,1003.97
2017-11-09T05:03:15.406Z,1004.00
2017-11-09T05:04:15.400Z,1004.00
2017-11-09T05:05:15.398Z,1004.05
2017-11-09T05:06:15.394Z,1004.06
2017-11-09T05:07:15.389Z,1004.08
2017-11-09T05:08:15.386Z,1004.14
2017-11-09T05:09:15.380Z,1004.14
2017-11-09T05:10:16.204Z,1004.15
2017-11-09T05:11:15.373Z,1004.15
2017-11-09T05:12:15.367Z,1004.15
2017-11-09T05:13:15.366Z,1004.16
2017-11-09T05:14:15.356Z,1004.18
2017-11-09T05:15:15.354Z,1004.18
2017-11-09T05:16:15.350Z,1004.17
2017-11-09T05:17:15.346Z,1004.14
2017-11-09T05:18:15.340Z,1004.19
2017-11-09T05:19:15.338Z,1004.18
2017-11-09T05:20:15.334Z,1004.16
2017-11-09T05:21:15.327Z,1004.14
2017-11-09T05:22:15.328Z,1004.15
2017-11-09T05:23:15.320Z,1004.18
2017-11-09T05:24:15.315Z,1004.20
2017-11-09T05:25:15.312Z,1004.25
2017-11-09T05:26:15.306Z,1004.22
2017-11-09T05:27:15.305Z,1004.21
2017-11-09T05:28:15.299Z,1004.22
2017-11-09T05:29:15.294Z,1004.23
2017-11-09T05:30:15.294Z,1004.25
2017-11-09T05:31:15.287Z,1004.28
2017-11-09T05:32:15.292Z,1004.24
2017-11-09T05:33:15.279Z,1004.24
2017-11-09T05:34:15.289Z,1004.24
2017-11-09T05:35:15.269Z,1004.23
2017-11-09T05:36:15.265Z,1004.24
2017-11-09T05:37:15.262Z,1004.20
2017-11-09T05:38:15.257Z,1004.22
2017-11-09T05:39:15.255Z,1004.19
2017-11-09T05:40:15.249Z,1004.21
2017-11-09T05:41:15.255Z,1004.19
2017-11-09T05:42:15.242Z,1004.23
2017-11-09T05:43:15.240Z,1004.20
2017-11-09T05:44:15.232Z,1004.19
2017-11-09T05:45:15.227Z,1004.18
2017-11-09T05:46:15.224Z,1004.22
2017-11-09T05:47:15.221Z,1004.25
2017-11-09T05:48:15.217Z,1004.26
2017-11-09T05:49:15.214Z,1004.22
2017-11-09T05:50:15.211Z,1004.26
2017-11-09T05:51:15.206Z,1004.29
2017-11-09T05:52:15.201Z,1004.31
2017-11-09T05:53:15.199Z,1004.27
2017-11-09T05:54:15.198Z,1004.26
2017-11-09T05:55:15.188Z,1004.29
2017-11-09T05:56:15.777Z,1004.28
2017-11-09T05:57:15.178Z,1004.25
2017-11-09T05:58:15.175Z,1004.33
2017-11-09T05:59:15.171Z,1004.29
2017-11-09T06:00:15.170Z,1004.31
2017-11-09T06:01:15.161Z,1004.30
2017-11-09T06:02:15.158Z,1004.25
2017-11-09T06:03:15.156Z,1004.29
2017-11-09T06:04:15.151Z,1004.34
2017-11-09T06:05:15.146Z,1004.35
2017-11-09T06:06:15.143Z,1004.27
2017-11-09T06:07:15.138Z,1004.33
2017-11-09T06:08:15.134Z,1004.33
2017-11-09T06:09:15.131Z,1004.31
2017-11-09T06:10:15.126Z,1004.36
2017-11-09T06:11:15.129Z,1004.42
2017-11-09T06:12:15.117Z,1004.39
2017-11-09T06:13:15.116Z,1004.43
2017-11-09T06:14:15.108Z,1004.40
2017-11-09T06:15:15.105Z,1004.44
2017-11-09T06:16:15.100Z,1004.42
2017-11-09T06:17:15.103Z,1004.43
2017-11-09T06:18:15.093Z,1004.46
2017-11-09T06:19:15.095Z,1004.46
2017-11-09T06:20:15.087Z,1004.53
2017-11-09T06:21:15.086Z,1004.51
2017-11-09T06:22:15.078Z,1004.45
2017-11-09T06:23:15.077Z,1004.53
2017-11-09T06:24:15.227Z,1004.50
2017-11-09T06:25:15.713Z,1004.54
2017-11-09T06:26:15.062Z,1004.54
2017-11-09T06:27:15.057Z,1004.51
2017-11-09T06:28:15.052Z,1004.50
2017-11-09T06:29:15.048Z,1004.50
2017-11-09T06:30:15.043Z,1004.56
2017-11-09T06:31:15.040Z,1004.53
2017-11-09T06:32:15.036Z,1004.55
2017-11-09T06:33:15.031Z,1004.58
2017-11-09T06:34:15.032Z,1004.56
2017-11-09T06:35:15.718Z,1004.49
2017-11-09T06:36:15.044Z,1004.49
2017-11-09T06:37:15.016Z,1004.58
2017-11-09T06:38:15.012Z,1004.51
2017-11-09T06:39:15.007Z,1004.49
2017-11-09T06:40:15.001Z,1004.60
2017-11-09T06:41:15.716Z,1004.63
2017-11-09T06:42:14.995Z,1004.61
2017-11-09T06:43:14.990Z,1004.63
2017-11-09T06:44:14.985Z,1004.66
2017-11-09T06:45:14.980Z,1004.61
2017-11-09T06:46:14.978Z,1004.68
2017-11-09T06:47:14.975Z,1004.65
2017-11-09T06:48:14.987Z,1004.72
2017-11-09T06:49:14.964Z,1004.73
2017-11-09T06:50:14.961Z,1004.75
2017-11-09T06:51:14.982Z,1004.74
2017-11-09T06:52:14.954Z,1004.77
2017-11-09T06:53:14.995Z,1004.75
2017-11-09T06:54:14.943Z,1004.76
2017-11-09T06:55:15.629Z,1004.75
2017-11-09T06:56:14.948Z,1004.76
2017-11-09T06:57:14.932Z,1004.73
2017-11-09T06:58:14.926Z,1004.75
2017-11-09T06:59:14.925Z,1004.74
2017-11-09T07:00:14.924Z,1004.77
2017-11-09T07:01:14.914Z,1004.76
2017-11-09T07:02:14.910Z,1004.71
2017-11-09T07:03:14.911Z,1004.76
2017-11-09T07:04:14.903Z,1004.74
2017-11-09T07:05:14.901Z,1004.79
2017-11-09T07:06:14.893Z,1004.84
2017-11-09T07:07:14.898Z,1004.81
2017-11-09T07:08:15.718Z,1004.78
2017-11-09T07:09:14.886Z,1004.82
2017-11-09T07:10:14.881Z,1004.89
2017-11-09T07:11:14.875Z,1004.85
2017-11-09T07:12:14.882Z,1004.89
2017-11-09T07:13:14.867Z,1004.91
2017-11-09T07:14:14.863Z,1004.93
2017-11-09T07:15:14.858Z,1004.93
2017-11-09T07:16:14.859Z,1004.98
2017-11-09T07:17:14.850Z,1004.97
2017-11-09T07:18:14.846Z,1005.00
2017-11-09T07:19:14.843Z,1004.98
2017-11-09T07:20:14.839Z,1004.99
2017-11-09T07:21:14.835Z,1004.98
2017-11-09T07:22:14.830Z,1005.05
2017-11-09T07:23:14.826Z,1004.99
2017-11-09T07:24:14.828Z,1004.98
2017-11-09T07:25:14.818Z,1005.00
2017-11-09T07:26:14.812Z,1004.98
2017-11-09T07:27:14.815Z,1005.02
2017-11-09T07:28:14.806Z,1005.01
2017-11-09T07:29:14.802Z,1004.98
2017-11-09T07:30:14.803Z,1004.96
2017-11-09T07:31:14.795Z,1004.99
2017-11-09T07:32:14.788Z,1004.96
2017-11-09T07:33:14.784Z,1004.99
2017-11-09T07:34:14.902Z,1004.98
2017-11-09T07:35:14.784Z,1005.02
2017-11-09T07:36:14.774Z,1005.00
2017-11-09T07:37:14.770Z,1004.99
2017-11-09T07:38:14.769Z,1005.05
2017-11-09T07:39:14.762Z,1005.08
2017-11-09T07:40:14.756Z,1005.08
2017-11-09T07:41:14.759Z,1005.07
2017-11-09T07:42:14.753Z,1005.11
2017-11-09T07:43:14.749Z,1005.11
2017-11-09T07:44:14.743Z,1005.12
2017-11-09T07:45:14.739Z,1005.14
2017-11-09T07:46:14.734Z,1005.15
2017-11-09T07:47:14.731Z,1005.18
2017-11-09T07:48:14.727Z,1005.19
2017-11-09T07:49:14.727Z,1005.20
2017-11-09T07:50:14.720Z,1005.22
2017-11-09T07:51:15.223Z,1005.23
2017-11-09T07:52:14.713Z,1005.19
2017-11-09T07:53:14.708Z,1005.22
2017-11-09T07:54:14.707Z,1005.18
2017-11-09T07:55:14.699Z,1005.18
2017-11-09T07:56:14.694Z,1005.19
2017-11-09T07:57:14.693Z,1005.20
2017-11-09T07:58:14.710Z,1005.22
2017-11-09T07:59:14.688Z,1005.22
2017-11-09T08:00:14.681Z,1005.18
2017-11-09T08:01:14.675Z,1005.15
2017-11-09T08:02:14.671Z,1005.14
2017-11-09T08:03:15.291Z,1005.18
2017-11-09T08:04:14.664Z,1005.18
2017-11-09T08:05:14.660Z,1005.24
2017-11-09T08:06:14.657Z,1005.22
2017-11-09T08:07:15.028Z,1005.23
2017-11-09T08:08:14.651Z,1005.21
2017-11-09T08:09:15.225Z,1005.28
2017-11-09T08:10:14.643Z,1005.26
2017-11-09T08:11:14.637Z,1005.25
2017-11-09T08:12:14.633Z,1005.23
2017-11-09T08:13:14.641Z,1005.24
2017-11-09T08:14:14.637Z,1005.18
2017-11-09T08:15:14.622Z,1005.23
2017-11-09T08:16:14.642Z,1005.26
2017-11-09T08:17:14.615Z,1005.26
2017-11-09T08:18:14.611Z,1005.30
2017-11-09T08:19:14.608Z,1005.31
2017-11-09T08:20:14.601Z,1005.30
2017-11-09T08:21:14.606Z,1005.33
2017-11-09T08:22:14.598Z,1005.31
2017-11-09T08:23:14.710Z,1005.29
2017-11-09T08:24:14.589Z,1005.32
2017-11-09T08:25:14.585Z,1005.34
2017-11-09T08:26:14.583Z,1005.32
2017-11-09T08:27:14.850Z,1005.33
2017-11-09T08:28:14.578Z,1005.32
2017-11-09T08:29:14.569Z,1005.33
2017-11-09T08:30:14.565Z,1005.31
2017-11-09T08:31:14.560Z,1005.32
2017-11-09T08:32:14.556Z,1005.32
2017-11-09T08:33:14.556Z,1005.31
2017-11-09T08:34:14.550Z,1005.29
2017-11-09T08:35:14.547Z,1005.29
2017-11-09T08:36:14.543Z,1005.33
2017-11-09T08:37:14.538Z,1005.33
2017-11-09T08:38:14.534Z,1005.33
2017-11-09T08:39:14.535Z,1005.34
2017-11-09T08:40:14.526Z,1005.34
2017-11-09T08:41:15.232Z,1005.35
2017-11-09T08:42:14.523Z,1005.34
2017-11-09T08:43:14.516Z,1005.36
2017-11-09T08:44:14.512Z,1005.36
2017-11-09T08:45:14.508Z,1005.39
2017-11-09T08:46:14.503Z,1005.39
2017-11-09T08:47:14.501Z,1005.39
2017-11-09T08:48:14.496Z,1005.38
2017-11-09T08:49:14.495Z,1005.39
2017-11-09T08:50:14.492Z,1005.41
2017-11-09T08:51:14.487Z,1005.38
2017-11-09T08:52:14.489Z,1005.42
2017-11-09T08:53:14.489Z,1005.41
2017-11-09T08:54:14.474Z,1005.42
2017-11-09T08:55:14.473Z,1005.40
2017-11-09T08:56:14.469Z,1005.34
2017-11-09T08:57:14.465Z,1005.35
2017-11-09T08:58:15.731Z,1005.36
2017-11-09T08:59:14.459Z,1005.33
2017-11-09T09:00:14.453Z,1005.31
2017-11-09T09:01:14.449Z,1005.29
2017-11-09T09:02:14.446Z,1005.31
2017-11-09T09:03:14.450Z,1005.26
2017-11-09T09:04:14.444Z,1005.27
2017-11-09T09:05:14.434Z,1005.34
2017-11-09T09:06:14.433Z,1005.34
2017-11-09T09:07:14.429Z,1005.36
2017-11-09T09:08:14.423Z,1005.32
2017-11-09T09:09:14.424Z,1005.34
2017-11-09T09:10:14.417Z,1005.32
2017-11-09T09:11:14.415Z,1005.35
2017-11-09T09:12:14.410Z,1005.26
2017-11-09T09:13:14.407Z,1005.28
2017-11-09T09:14:14.404Z,1005.31
2017-11-09T09:15:14.400Z,1005.34
2017-11-09T09:16:14.400Z,1005.30
2017-11-09T09:17:14.395Z,1005.29
2017-11-09T09:18:14.398Z,1005.34
2017-11-09T09:19:14.392Z,1005.29
2017-11-09T09:20:14.383Z,1005.29
2017-11-09T09:21:14.378Z,1005.33
2017-11-09T09:22:14.376Z,1005.35
2017-11-09T09:23:14.395Z,1005.30
2017-11-09T09:24:14.389Z,1005.26
2017-11-09T09:25:14.379Z,1005.27
2017-11-09T09:26:14.362Z,1005.25
2017-11-09T09:27:14.362Z,1005.28
2017-11-09T09:28:14.359Z,1005.33
2017-11-09T09:29:14.352Z,1005.33
2017-11-09T09:30:14.348Z,1005.30
2017-11-09T09:31:14.347Z,1005.25
2017-11-09T09:32:14.340Z,1005.26
2017-11-09T09:33:14.338Z,1005.29
2017-11-09T09:34:14.338Z,1005.33
2017-11-09T09:35:14.339Z,1005.25
2017-11-09T09:36:14.327Z,1005.28
2017-11-09T09:37:14.324Z,1005.29
2017-11-09T09:38:14.320Z,1005.22
2017-11-09T09:39:14.322Z,1005.27
2017-11-09T09:40:14.313Z,1005.32
2017-11-09T09:41:14.309Z,1005.31
2017-11-09T09:42:14.305Z,1005.29
2017-11-09T09:43:14.357Z,1005.25
2017-11-09T09:44:14.307Z,1005.29
2017-11-09T09:45:14.556Z,1005.29
2017-11-09T09:46:15.241Z,1005.27
2017-11-09T09:47:14.522Z,1005.27
2017-11-09T09:48:14.301Z,1005.23
2017-11-09T09:49:14.282Z,1005.32
2017-11-09T09:50:14.280Z,1005.25
2017-11-09T09:51:14.275Z,1005.28
2017-11-09T09:52:14.273Z,1005.27
2017-11-09T09:53:14.644Z,1005.29
2017-11-09T09:54:14.263Z,1005.31
2017-11-09T09:55:14.289Z,1005.29
2017-11-09T09:56:14.256Z,1005.33
2017-11-09T09:57:14.286Z,1005.29
2017-11-09T09:58:14.249Z,1005.28
2017-11-09T09:59:14.248Z,1005.26
2017-11-09T10:00:14.249Z,1005.23
2017-11-09T10:01:14.302Z,1005.22
2017-11-09T10:02:14.242Z,1005.27
2017-11-09T10:03:14.248Z,1005.21
2017-11-09T10:04:14.232Z,1005.24
2017-11-09T10:05:14.224Z,1005.21
2017-11-09T10:06:14.226Z,1005.21
2017-11-09T10:07:14.224Z,1005.18
2017-11-09T10:08:14.221Z,1005.26
2017-11-09T10:09:14.220Z,1005.23
2017-11-09T10:10:14.219Z,1005.24
2017-11-09T10:11:14.219Z,1005.30
2017-11-09T10:12:14.208Z,1005.24
2017-11-09T10:13:14.198Z,1005.29
2017-11-09T10:14:14.195Z,1005.28
2017-11-09T10:15:14.197Z,1005.30
2017-11-09T10:16:14.190Z,1005.33
2017-11-09T10:17:14.188Z,1005.34
2017-11-09T10:18:14.286Z,1005.30
2017-11-09T10:19:14.179Z,1005.27
2017-11-09T10:20:14.175Z,1005.31
2017-11-09T10:21:14.172Z,1005.28
2017-11-09T10:22:14.170Z,1005.34
2017-11-09T10:23:14.181Z,1005.29
2017-11-09T10:24:14.162Z,1005.33
2017-11-09T10:25:14.158Z,1005.32
2017-11-09T10:26:14.156Z,1005.41
2017-11-09T10:27:14.154Z,1005.35
2017-11-09T10:28:14.149Z,1005.31
2017-11-09T10:29:14.147Z,1005.25
2017-11-09T10:30:14.393Z,1005.28
2017-11-09T10:31:14.140Z,1005.29
2017-11-09T10:32:14.143Z,1005.29
2017-11-09T10:33:14.140Z,1005.26
2017-11-09T10:34:14.132Z,1005.21
2017-11-09T10:35:14.130Z,1005.27
2017-11-09T10:36:14.125Z,1005.21
2017-11-09T10:37:14.122Z,1005.20
2017-11-09T10:38:14.120Z,1005.13
2017-11-09T10:39:14.117Z,1005.16
2017-11-09T10:40:14.160Z,1005.11
2017-11-09T10:41:14.112Z,1005.11
2017-11-09T10:42:14.108Z,1005.11
2017-11-09T10:43:14.105Z,1005.10
2017-11-09T10:44:14.101Z,1005.11
2017-11-09T10:45:14.100Z,1005.13
2017-11-09T10:46:14.100Z,1005.14
2017-11-09T10:47:14.097Z,1005.11
2017-11-09T10:48:14.091Z,1005.06
2017-11-09T10:49:14.106Z,1005.09
2017-11-09T10:50:14.085Z,1005.02
2017-11-09T10:51:14.085Z,1005.03
2017-11-09T10:52:14.081Z,1004.93
2017-11-09T10:53:14.077Z,1004.98
2017-11-09T10:54:14.074Z,1004.97
2017-11-09T10:55:14.753Z,1004.98
2017-11-09T10:56:14.073Z,1004.93
2017-11-09T10:57:14.068Z,1005.00
2017-11-09T10:58:14.066Z,1004.95
2017-11-09T10:59:14.062Z,1004.98
2017-11-09T11:00:14.061Z,1004.95
2017-11-09T11:01:14.853Z,1004.95
2017-11-09T11:02:14.056Z,1004.92
2017-11-09T11:03:14.056Z,1004.97
2017-11-09T11:04:14.050Z,1004.89
2017-11-09T11:05:14.048Z,1004.80
2017-11-09T11:06:14.048Z,1004.85
2017-11-09T11:07:14.046Z,1004.82
2017-11-09T11:08:14.042Z,1004.86
2017-11-09T11:09:14.044Z,1004.86
2017-11-09T11:10:14.037Z,1004.89
2017-11-09T11:11:14.038Z,1004.89
2017-11-09T11:12:14.031Z,1004.89
2017-11-09T11:13:14.033Z,1004.92
2017-11-09T11:14:14.026Z,1004.87
2017-11-09T11:15:14.024Z,1004.83
2017-11-09T11:16:14.021Z,1004.82
2017-11-09T11:17:14.022Z,1004.82
2017-11-09T11:18:14.017Z,1004.84
2017-11-09T11:19:14.014Z,1004.82
2017-11-09T11:20:14.044Z,1004.78
2017-11-09T11:21:14.009Z,1004.79
2017-11-09T11:22:14.025Z,1004.78
2017-11-09T11:23:14.017Z,1004.86
2017-11-09T11:24:14.002Z,1004.87
2017-11-09T11:25:13.999Z,1004.87
2017-11-09T11:26:14.284Z,1004.82
2017-11-09T11:27:13.993Z,1004.87
2017-11-09T11:28:14.022Z,1004.90
2017-11-09T11:29:13.990Z,1004.91
2017-11-09T11:30:13.997Z,1004.85
2017-11-09T11:31:14.036Z,1004.87
2017-11-09T11:32:13.984Z,1004.88
2017-11-09T11:33:13.985Z,1004.88
2017-11-09T11:34:13.975Z,1004.91
2017-11-09T11:35:15.753Z,1004.93
2017-11-09T11:36:14.014Z,1004.90
2017-11-09T11:37:13.971Z,1004.91
2017-11-09T11:38:13.965Z,1004.88
2017-11-09T11:39:13.962Z,1004.88
2017-11-09T11:40:14.203Z,1004.84
2017-11-09T11:41:13.957Z,1004.83
2017-11-09T11:42:13.956Z,1004.82
2017-11-09T11:43:13.952Z,1004.90
2017-11-09T11:44:14.754Z,1004.85
2017-11-09T11:45:13.953Z,1004.87
2017-11-09T11:46:13.945Z,1004.91
2017-11-09T11:47:13.943Z,1004.86
2017-11-09T11:48:13.950Z,1004.87
2017-11-09T11:49:13.937Z,1004.84
2017-11-09T11:50:13.935Z,1004.94
2017-11-09T11:51:13.949Z,1004.90
2017-11-09T11:52:14.815Z,1004.92
2017-11-09T11:53:13.925Z,1004.88
2017-11-09T11:54:13.927Z,1004.91
2017-11-09T11:55:13.925Z,1004.84
2017-11-09T11:56:13.917Z,1004.84
2017-11-09T11:57:13.915Z,1004.91
2017-11-09T11:58:14.236Z,1004.90
2017-11-09T11:59:14.210Z,1004.86
2017-11-09T12:00:13.907Z,1004.97
2017-11-09T12:01:13.903Z,1005.02
2017-11-09T12:02:13.904Z,1005.06
2017-11-09T12:03:14.041Z,1005.00
2017-11-09T12:04:13.905Z,1005.01
2017-11-09T12:05:13.905Z,1004.94